createdAt,value
2019-05-25T00:00:45.297Z,90.56
2019-05-25T00:01:44.260Z,90.77
2019-05-25T00:02:44.328Z,89.94
2019-05-25T00:03:44.289Z,89.12
2019-05-25T00:04:44.310Z,88.92
2019-05-25T00:05:44.197Z,90.05
2019-05-25T00:06:44.277Z,90.15
2019-05-25T00:07:44.178Z,89.18
2019-05-25T00:08:44.210Z,88.68
2019-05-25T00:09:44.172Z,88.78
2019-05-25T00:10:44.140Z,89.18
2019-05-25T00:11:44.131Z,88.17
2019-05-25T00:12:44.184Z,88.78
2019-05-25T00:13:44.145Z,89.04
2019-05-25T00:14:44.174Z,89.45
2019-05-25T00:15:44.175Z,88.74
2019-05-25T00:16:44.163Z,88.94
2019-05-25T00:17:44.074Z,89.04
2019-05-25T00:18:44.094Z,88.33
2019-05-25T00:19:44.067Z,87.41
2019-05-25T00:20:44.144Z,87.71
2019-05-25T00:21:44.030Z,87.67
2019-05-25T00:22:44.066Z,88.23
2019-05-25T00:23:43.998Z,87.16
2019-05-25T00:24:44.038Z,87.16
2019-05-25T00:25:43.979Z,87.37
2019-05-25T00:26:43.949Z,87.16
2019-05-25T00:27:43.949Z,87.06
2019-05-25T00:28:43.970Z,87.57
2019-05-25T00:29:43.951Z,87.37
2019-05-25T00:30:44.011Z,86.96
2019-05-25T00:31:43.923Z,86.96
2019-05-25T00:32:43.943Z,87.06
2019-05-25T00:33:43.896Z,87.12
2019-05-25T00:34:43.934Z,87.12
2019-05-25T00:35:43.875Z,86.85
2019-05-25T00:36:43.927Z,87.02
2019-05-25T00:37:43.858Z,86.96
2019-05-25T00:38:43.853Z,87.12
2019-05-25T00:39:43.839Z,87.12
2019-05-25T00:40:43.888Z,87.12
2019-05-25T00:41:43.803Z,87.02
2019-05-25T00:42:43.788Z,87.12
2019-05-25T00:43:43.899Z,86.96
2019-05-25T00:44:43.781Z,87.23
2019-05-25T00:45:44.850Z,87.06
2019-05-25T00:46:43.740Z,87.12
2019-05-25T00:47:43.734Z,87.67
2019-05-25T00:48:43.842Z,87.57
2019-05-25T00:49:43.735Z,87.37
2019-05-25T00:50:43.775Z,87.98
2019-05-25T00:51:43.694Z,88.39
2019-05-25T00:52:43.684Z,87.92
2019-05-25T00:53:43.677Z,88.33
2019-05-25T00:54:43.696Z,88.74
2019-05-25T00:55:43.656Z,88.98
2019-05-25T00:56:43.676Z,89.09
2019-05-25T00:57:43.616Z,89.29
2019-05-25T00:58:43.610Z,89.29
2019-05-25T00:59:43.729Z,89.39
2019-05-25T01:00:43.591Z,89.70
2019-05-25T01:01:43.622Z,89.90
2019-05-25T01:02:43.579Z,89.90
2019-05-25T01:03:43.551Z,89.94
2019-05-25T01:04:43.565Z,90.25
2019-05-25T01:05:43.602Z,90.66
2019-05-25T01:06:43.533Z,90.60
2019-05-25T01:07:43.633Z,91.17
2019-05-25T01:08:43.493Z,90.36
2019-05-25T01:09:43.624Z,91.07
2019-05-25T01:10:43.484Z,91.11
2019-05-25T01:11:43.505Z,90.81
2019-05-25T01:12:43.465Z,90.60
2019-05-25T01:13:43.536Z,90.95
2019-05-25T01:14:43.438Z,91.16
2019-05-25T01:15:43.517Z,91.16
2019-05-25T01:16:43.422Z,91.26
2019-05-25T01:17:43.514Z,91.36
2019-05-25T01:18:43.389Z,91.56
2019-05-25T01:19:43.381Z,91.77
2019-05-25T01:20:43.461Z,91.67
2019-05-25T01:21:43.354Z,91.67
2019-05-25T01:22:44.372Z,92.49
2019-05-25T01:23:43.343Z,91.97
2019-05-25T01:24:44.919Z,92.22
2019-05-25T01:25:43.414Z,92.49
2019-05-25T01:26:43.303Z,92.32
2019-05-25T01:27:43.397Z,91.91
2019-05-25T01:28:43.285Z,92.02
2019-05-25T01:29:43.277Z,91.91
2019-05-25T01:30:43.266Z,92.02
2019-05-25T01:31:44.288Z,92.63
2019-05-25T01:32:43.229Z,92.83
2019-05-25T01:33:43.297Z,92.94
2019-05-25T01:34:43.233Z,93.04
2019-05-25T01:35:43.285Z,92.83
2019-05-25T01:36:43.190Z,92.83
2019-05-25T01:37:43.343Z,92.88
2019-05-25T01:38:43.160Z,92.47
2019-05-25T01:39:43.210Z,92.98
2019-05-25T01:40:43.222Z,91.96
2019-05-25T01:41:43.141Z,92.78
2019-05-25T01:42:43.214Z,92.57
2019-05-25T01:43:43.112Z,92.68
2019-05-25T01:44:43.154Z,92.51
2019-05-25T01:45:43.185Z,93.54
2019-05-25T01:46:43.088Z,93.74
2019-05-25T01:47:43.155Z,93.44
2019-05-25T01:48:43.071Z,93.54
2019-05-25T01:49:44.117Z,93.44
2019-05-25T01:50:43.046Z,93.44
2019-05-25T01:51:43.129Z,93.44
2019-05-25T01:52:43.009Z,93.74
2019-05-25T01:53:43.063Z,93.44
2019-05-25T01:54:58.591Z,93.44
2019-05-25T01:55:43.990Z,93.13
2019-05-25T01:56:42.960Z,93.17
2019-05-25T01:57:43.030Z,93.48
2019-05-25T01:58:42.951Z,93.99
2019-05-25T01:59:42.971Z,94.30
2019-05-25T02:00:42.942Z,94.40
2019-05-25T02:01:42.913Z,95.32
2019-05-25T02:02:42.973Z,94.51
2019-05-25T02:03:42.895Z,93.99
2019-05-25T02:04:42.916Z,93.99
2019-05-25T02:05:42.887Z,94.61
2019-05-25T02:06:42.846Z,94.40
2019-05-25T02:07:42.836Z,94.20
2019-05-25T02:08:43.918Z,94.30
2019-05-25T02:09:42.810Z,94.81
2019-05-25T02:10:42.860Z,94.81
2019-05-25T02:11:42.888Z,94.61
2019-05-25T02:12:42.779Z,94.40
2019-05-25T02:13:42.819Z,94.51
2019-05-25T02:14:42.766Z,94.30
2019-05-25T02:15:42.803Z,94.71
2019-05-25T02:16:42.742Z,94.61
2019-05-25T02:17:42.803Z,94.30
2019-05-25T02:18:45.545Z,94.92
2019-05-25T02:19:42.733Z,94.81
2019-05-25T02:20:42.723Z,95.02
2019-05-25T02:21:42.773Z,95.02
2019-05-25T02:22:42.685Z,94.61
2019-05-25T02:23:42.716Z,94.61
2019-05-25T02:24:42.658Z,94.51
2019-05-25T02:25:42.902Z,94.30
2019-05-25T02:26:42.632Z,93.27
2019-05-25T02:27:42.619Z,93.68
2019-05-25T02:28:42.609Z,93.68
2019-05-25T02:29:42.625Z,94.10
2019-05-25T02:30:42.582Z,94.30
2019-05-25T02:31:42.690Z,94.24
2019-05-25T02:32:42.550Z,94.51
2019-05-25T02:33:42.591Z,94.45
2019-05-25T02:34:42.552Z,94.65
2019-05-25T02:35:42.621Z,94.34
2019-05-25T02:36:42.542Z,94.76
2019-05-25T02:37:42.564Z,94.85
2019-05-25T02:38:42.503Z,94.92
2019-05-25T02:39:42.605Z,94.92
2019-05-25T02:40:42.484Z,94.61
2019-05-25T02:41:42.575Z,94.40
2019-05-25T02:42:42.465Z,95.27
2019-05-25T02:43:42.436Z,94.81
2019-05-25T02:44:42.426Z,94.30
2019-05-25T02:45:42.498Z,94.51
2019-05-25T02:46:42.418Z,94.51
2019-05-25T02:47:42.438Z,94.40
2019-05-25T02:48:42.379Z,94.51
2019-05-25T02:49:42.479Z,94.61
2019-05-25T02:50:42.362Z,94.40
2019-05-25T02:51:42.451Z,94.51
2019-05-25T02:52:42.341Z,94.81
2019-05-25T02:53:42.353Z,94.61
2019-05-25T02:54:42.422Z,94.30
2019-05-25T02:55:42.313Z,94.30
2019-05-25T02:56:42.403Z,95.02
2019-05-25T02:57:42.293Z,94.92
2019-05-25T02:58:42.405Z,94.81
2019-05-25T02:59:42.355Z,95.23
2019-05-25T03:00:42.245Z,95.12
2019-05-25T03:01:42.336Z,94.81
2019-05-25T03:02:42.281Z,95.32
2019-05-25T03:03:42.327Z,95.49
2019-05-25T03:04:42.198Z,94.87
2019-05-25T03:05:42.251Z,95.02
2019-05-25T03:06:42.280Z,94.77
2019-05-25T03:07:42.170Z,94.98
2019-05-25T03:08:42.270Z,94.87
2019-05-25T03:09:42.150Z,94.77
2019-05-25T03:10:42.130Z,94.87
2019-05-25T03:11:42.279Z,94.77
2019-05-25T03:12:42.122Z,94.98
2019-05-25T03:13:42.213Z,94.05
2019-05-25T03:14:42.103Z,94.56
2019-05-25T03:15:42.098Z,93.64
2019-05-25T03:16:42.097Z,93.54
2019-05-25T03:17:42.092Z,93.74
2019-05-25T03:18:42.047Z,93.95
2019-05-25T03:19:42.116Z,93.95
2019-05-25T03:20:42.051Z,93.85
2019-05-25T03:21:42.097Z,93.74
2019-05-25T03:22:41.998Z,94.36
2019-05-25T03:23:42.090Z,94.05
2019-05-25T03:24:41.979Z,93.85
2019-05-25T03:25:49.563Z,93.74
2019-05-25T03:26:42.969Z,93.85
2019-05-25T03:27:42.061Z,93.64
2019-05-25T03:28:41.940Z,94.46
2019-05-25T03:29:42.002Z,94.36
2019-05-25T03:30:41.925Z,94.36
2019-05-25T03:31:41.933Z,94.56
2019-05-25T03:32:42.018Z,94.46
2019-05-25T03:33:41.902Z,94.46
2019-05-25T03:34:41.976Z,94.36
2019-05-25T03:35:41.863Z,94.46
2019-05-25T03:36:41.876Z,94.46
2019-05-25T03:37:41.837Z,94.26
2019-05-25T03:38:41.906Z,94.15
2019-05-25T03:39:41.807Z,94.46
2019-05-25T03:40:41.848Z,94.46
2019-05-25T03:41:41.820Z,94.32
2019-05-25T03:42:41.888Z,94.36
2019-05-25T03:43:41.769Z,94.46
2019-05-25T03:44:41.821Z,94.42
2019-05-25T03:45:41.750Z,94.42
2019-05-25T03:46:41.763Z,94.11
2019-05-25T03:47:41.742Z,93.70
2019-05-25T03:48:41.791Z,93.70
2019-05-25T03:49:41.769Z,93.90
2019-05-25T03:50:41.735Z,93.80
2019-05-25T03:51:41.688Z,93.39
2019-05-25T03:52:41.702Z,93.39
2019-05-25T03:53:41.735Z,93.60
2019-05-25T03:54:41.659Z,93.90
2019-05-25T03:55:42.685Z,94.32
2019-05-25T03:56:41.626Z,93.60
2019-05-25T03:57:41.747Z,93.80
2019-05-25T03:58:41.597Z,93.39
2019-05-25T03:59:41.637Z,93.29
2019-05-25T04:00:41.558Z,92.31
2019-05-25T04:01:42.599Z,92.93
2019-05-25T04:02:41.628Z,92.31
2019-05-25T04:03:41.619Z,92.72
2019-05-25T04:04:41.531Z,93.64
2019-05-25T04:05:41.552Z,93.33
2019-05-25T04:06:41.523Z,93.54
2019-05-25T04:07:41.528Z,92.82
2019-05-25T04:08:41.503Z,93.23
2019-05-25T04:09:41.524Z,92.86
2019-05-25T04:10:41.475Z,93.48
2019-05-25T04:11:41.565Z,93.68
2019-05-25T04:12:41.468Z,93.59
2019-05-25T04:13:41.498Z,93.79
2019-05-25T04:14:41.449Z,93.79
2019-05-25T04:15:41.427Z,93.74
2019-05-25T04:16:41.417Z,93.74
2019-05-25T04:17:41.413Z,93.85
2019-05-25T04:18:41.379Z,93.95
2019-05-25T04:19:41.399Z,93.64
2019-05-25T04:20:41.362Z,93.44
2019-05-25T04:21:41.440Z,93.64
2019-05-25T04:22:41.340Z,93.79
2019-05-25T04:23:41.381Z,93.33
2019-05-25T04:24:41.322Z,93.54
2019-05-25T04:25:41.413Z,93.59
2019-05-25T04:26:41.302Z,93.44
2019-05-25T04:27:41.404Z,93.33
2019-05-25T04:28:41.278Z,93.44
2019-05-25T04:29:41.294Z,93.54
2019-05-25T04:30:41.304Z,93.74
2019-05-25T04:31:41.316Z,93.33
2019-05-25T04:32:41.236Z,93.33
2019-05-25T04:33:41.216Z,93.49
2019-05-25T04:34:41.237Z,92.68
2019-05-25T04:35:41.189Z,92.36
2019-05-25T04:36:41.263Z,92.57
2019-05-25T04:37:41.194Z,92.78
2019-05-25T04:38:41.177Z,92.88
2019-05-25T04:39:41.140Z,92.57
2019-05-25T04:40:41.240Z,91.82
2019-05-25T04:41:41.131Z,91.65
2019-05-25T04:42:42.255Z,91.71
2019-05-25T04:43:41.113Z,91.20
2019-05-25T04:44:41.213Z,91.30
2019-05-25T04:45:41.083Z,91.40
2019-05-25T04:46:41.153Z,91.30
2019-05-25T04:47:41.075Z,91.16
2019-05-25T04:48:41.074Z,90.75
2019-05-25T04:49:41.055Z,90.84
2019-05-25T04:50:41.128Z,90.84
2019-05-25T04:51:41.017Z,90.64
2019-05-25T04:52:42.118Z,90.64
2019-05-25T04:53:41.008Z,90.95
2019-05-25T04:54:40.978Z,90.34
2019-05-25T04:55:40.971Z,89.78
2019-05-25T04:56:41.030Z,90.03
2019-05-25T04:57:40.961Z,89.98
2019-05-25T04:58:40.960Z,90.09
2019-05-25T04:59:40.931Z,90.09
2019-05-25T05:00:42.947Z,89.98
2019-05-25T05:01:40.912Z,90.09
2019-05-25T05:02:40.992Z,89.98
2019-05-25T05:03:40.886Z,89.68
2019-05-25T05:04:40.973Z,89.27
2019-05-25T05:05:40.864Z,89.27
2019-05-25T05:06:40.919Z,89.23
2019-05-25T05:07:40.864Z,89.43
2019-05-25T05:08:40.846Z,89.33
2019-05-25T05:09:40.816Z,89.23
2019-05-25T05:10:40.796Z,89.43
2019-05-25T05:11:40.769Z,89.12
2019-05-25T05:12:40.817Z,88.92
2019-05-25T05:13:40.778Z,88.57
2019-05-25T05:14:40.858Z,88.31
2019-05-25T05:15:40.829Z,88.37
2019-05-25T05:16:40.754Z,88.33
2019-05-25T05:17:40.763Z,88.17
2019-05-25T05:18:40.733Z,87.55
2019-05-25T05:19:41.821Z,87.71
2019-05-25T05:20:40.702Z,87.71
2019-05-25T05:21:40.732Z,87.00
2019-05-25T05:22:40.693Z,87.20
2019-05-25T05:23:40.729Z,87.20
2019-05-25T05:24:40.644Z,87.00
2019-05-25T05:25:40.704Z,86.69
2019-05-25T05:26:54.759Z,86.65
2019-05-25T05:27:41.606Z,86.79
2019-05-25T05:28:40.656Z,86.69
2019-05-25T05:29:40.597Z,87.06
2019-05-25T05:30:40.648Z,86.76
2019-05-25T05:31:40.618Z,87.16
2019-05-25T05:32:40.559Z,86.65
2019-05-25T05:33:40.590Z,86.76
2019-05-25T05:34:40.541Z,86.61
2019-05-25T05:35:41.610Z,86.30
2019-05-25T05:36:40.521Z,86.30
2019-05-25T05:37:40.531Z,86.10
2019-05-25T05:38:40.512Z,85.59
2019-05-25T05:39:41.595Z,85.75
2019-05-25T05:40:40.478Z,85.04
2019-05-25T05:41:41.524Z,85.04
2019-05-25T05:42:40.465Z,84.59
2019-05-25T05:43:40.445Z,84.69
2019-05-25T05:44:40.505Z,84.49
2019-05-25T05:45:40.407Z,84.66
2019-05-25T05:46:40.442Z,84.45
2019-05-25T05:47:41.444Z,84.55
2019-05-25T05:48:40.389Z,84.61
2019-05-25T05:49:40.448Z,84.41
2019-05-25T05:50:40.359Z,84.61
2019-05-25T05:51:40.379Z,84.41
2019-05-25T05:52:40.342Z,83.35
2019-05-25T05:53:40.360Z,83.11
2019-05-25T05:54:40.323Z,82.70
2019-05-25T05:55:41.381Z,82.35
2019-05-25T05:56:40.302Z,81.16
2019-05-25T05:57:41.324Z,80.17
2019-05-25T05:58:40.294Z,77.59
2019-05-25T05:59:40.324Z,74.74
2019-05-25T06:00:40.258Z,72.17
2019-05-25T06:01:40.255Z,69.58
2019-05-25T06:02:40.228Z,66.72
2019-05-25T06:03:40.226Z,65.88
2019-05-25T06:04:40.203Z,64.81
2019-05-25T06:05:40.238Z,64.28
2019-05-25T06:06:40.177Z,63.78
2019-05-25T06:07:40.267Z,62.81
2019-05-25T06:08:40.168Z,62.98
2019-05-25T06:09:40.208Z,61.98
2019-05-25T06:10:40.140Z,62.95
2019-05-25T06:11:40.151Z,62.65
2019-05-25T06:12:40.120Z,62.35
2019-05-25T06:13:40.231Z,61.94
2019-05-25T06:14:40.151Z,60.84
2019-05-25T06:15:40.082Z,59.91
2019-05-25T06:16:40.083Z,59.67
2019-05-25T06:17:40.053Z,59.55
2019-05-25T06:18:40.177Z,59.75
2019-05-25T06:19:40.085Z,59.45
2019-05-25T06:20:40.025Z,59.12
2019-05-25T06:21:40.026Z,59.09
2019-05-25T06:22:40.007Z,57.98
2019-05-25T06:23:40.106Z,57.46
2019-05-25T06:24:41.061Z,57.15
2019-05-25T06:25:39.971Z,55.82
2019-05-25T06:26:40.178Z,55.27
2019-05-25T06:27:39.949Z,54.55
2019-05-25T06:28:40.112Z,52.99
2019-05-25T06:29:40.000Z,52.59
2019-05-25T06:30:39.941Z,51.25
2019-05-25T06:31:39.912Z,51.04
2019-05-25T06:32:39.982Z,50.12
2019-05-25T06:33:39.872Z,49.92
2019-05-25T06:34:39.957Z,49.72
2019-05-25T06:35:39.864Z,49.55
2019-05-25T06:36:39.944Z,50.54
2019-05-25T06:37:39.835Z,50.87
2019-05-25T06:38:39.885Z,52.07
2019-05-25T06:39:39.836Z,50.95
2019-05-25T06:40:39.910Z,50.04
2019-05-25T06:41:39.790Z,50.72
2019-05-25T06:42:39.858Z,49.82
2019-05-25T06:43:39.768Z,50.60
2019-05-25T06:44:39.849Z,49.48
2019-05-25T06:45:39.752Z,47.53
2019-05-25T06:46:39.962Z,47.74
2019-05-25T06:47:39.733Z,46.59
2019-05-25T06:48:39.773Z,47.56
2019-05-25T06:49:39.723Z,45.11
2019-05-25T06:50:39.706Z,43.88
2019-05-25T06:51:39.679Z,43.04
2019-05-25T06:52:39.745Z,41.81
2019-05-25T06:53:39.657Z,41.08
2019-05-25T06:54:39.728Z,40.76
2019-05-25T06:55:39.627Z,39.95
2019-05-25T06:56:39.616Z,40.13
2019-05-25T06:57:43.613Z,39.52
2019-05-25T06:58:39.647Z,39.52
2019-05-25T06:59:39.600Z,38.02
2019-05-25T07:00:39.689Z,39.68
2019-05-25T07:01:39.659Z,38.00
2019-05-25T07:02:39.561Z,39.00
2019-05-25T07:03:39.602Z,39.42
2019-05-25T07:04:39.561Z,39.00
2019-05-25T07:05:39.662Z,38.00
2019-05-25T07:06:39.512Z,36.99
2019-05-25T07:07:39.563Z,37.27
2019-05-25T07:08:39.485Z,37.07
2019-05-25T07:09:40.565Z,37.17
2019-05-25T07:10:39.465Z,37.88
2019-05-25T07:11:39.546Z,37.11
2019-05-25T07:12:39.446Z,37.01
2019-05-25T07:13:39.479Z,38.59
2019-05-25T07:14:39.437Z,37.59
2019-05-25T07:15:39.521Z,37.66
2019-05-25T07:16:39.409Z,36.78
2019-05-25T07:17:39.399Z,37.05
2019-05-25T07:18:39.390Z,36.53
2019-05-25T07:19:39.435Z,35.64
2019-05-25T07:20:39.365Z,36.23
2019-05-25T07:21:39.422Z,35.64
2019-05-25T07:22:39.383Z,36.23
2019-05-25T07:23:39.333Z,36.22
2019-05-25T07:24:39.364Z,35.61
2019-05-25T07:25:39.298Z,35.21
2019-05-25T07:26:39.367Z,36.10
2019-05-25T07:27:39.278Z,34.92
2019-05-25T07:28:45.846Z,35.00
2019-05-25T07:29:39.287Z,34.18
2019-05-25T07:33:03.813Z,33.87
2019-05-25T07:34:03.802Z,33.89
2019-05-25T07:35:13.656Z,34.28
2019-05-25T07:36:07.599Z,34.46
2019-05-25T07:37:03.904Z,33.54
2019-05-25T07:38:03.753Z,33.61
2019-05-25T07:39:03.733Z,33.29
2019-05-25T07:40:04.874Z,32.30
2019-05-25T07:41:03.716Z,32.01
2019-05-25T07:44:14.606Z,31.11
2019-05-25T07:45:14.618Z,31.99
2019-05-25T07:46:17.340Z,31.49
2019-05-25T07:47:14.578Z,30.79
2019-05-25T07:48:21.369Z,30.72
2019-05-25T07:49:14.560Z,32.19
2019-05-25T07:50:35.533Z,31.38
2019-05-25T07:51:14.520Z,30.71
2019-05-25T07:52:23.373Z,30.90
2019-05-25T07:53:14.508Z,31.87
2019-05-25T07:55:40.616Z,29.77
2019-05-25T07:56:29.585Z,29.41
2019-05-25T07:57:36.625Z,31.05
2019-05-25T07:58:29.566Z,30.37
2019-05-25T07:59:44.648Z,30.69
2019-05-25T08:00:29.557Z,30.88
2019-05-25T08:01:46.628Z,30.68
2019-05-25T08:02:29.529Z,31.98
2019-05-25T08:03:29.520Z,32.10
2019-05-25T08:04:57.480Z,32.58
2019-05-25T08:05:29.511Z,31.29
2019-05-25T08:06:29.508Z,30.58
2019-05-25T08:08:05.673Z,29.70
2019-05-25T08:08:29.452Z,31.00
2019-05-25T08:09:29.463Z,30.80
2019-05-25T08:10:45.554Z,30.98
2019-05-25T08:11:29.416Z,31.46
2019-05-25T08:12:38.087Z,30.48
2019-05-25T08:13:29.396Z,30.26
2019-05-25T08:14:59.107Z,30.71
2019-05-25T08:15:29.418Z,29.44
2019-05-25T08:16:50.549Z,29.22
2019-05-25T08:17:29.370Z,27.86
2019-05-25T08:18:51.489Z,28.23
2019-05-25T08:19:29.330Z,28.53
2019-05-25T08:20:39.091Z,28.32
2019-05-25T08:21:29.315Z,28.83
2019-05-25T08:22:58.146Z,28.14
2019-05-25T08:23:29.284Z,28.44
2019-05-25T08:24:29.279Z,28.16
2019-05-25T08:25:50.495Z,29.18
2019-05-25T08:26:29.258Z,28.39
2019-05-25T08:27:29.256Z,28.07
2019-05-25T08:30:18.827Z,28.59
2019-05-25T08:30:49.518Z,27.75
2019-05-25T08:31:58.349Z,28.05
2019-05-25T08:32:49.453Z,28.88
2019-05-25T08:34:27.353Z,31.00
2019-05-25T08:34:49.423Z,31.13
2019-05-25T08:35:49.434Z,31.23
2019-05-25T08:38:06.214Z,29.91
2019-05-25T08:39:06.214Z,30.84
2019-05-25T08:40:27.356Z,28.61
2019-05-25T08:41:06.195Z,31.20
2019-05-25T08:42:06.224Z,31.57
2019-05-25T08:43:06.168Z,31.77
2019-05-25T08:44:06.159Z,30.49
2019-05-25T08:45:34.065Z,30.82
2019-05-25T08:46:06.221Z,30.75
2019-05-25T08:47:06.115Z,32.66
2019-05-25T08:48:44.020Z,34.20
2019-05-25T08:49:06.094Z,35.33
2019-05-25T08:50:06.127Z,36.35
2019-05-25T08:51:08.222Z,37.47
2019-05-25T08:52:06.058Z,37.21
2019-05-25T08:53:14.033Z,36.99
2019-05-25T08:54:06.035Z,35.88
2019-05-25T08:55:06.205Z,35.94
2019-05-25T08:56:06.036Z,36.23
2019-05-25T08:57:17.961Z,35.54
2019-05-25T08:58:06.011Z,35.31
2019-05-25T08:59:05.988Z,35.63
2019-05-25T09:00:05.978Z,37.49
2019-05-25T09:01:10.561Z,38.65
2019-05-25T09:02:05.960Z,40.09
2019-05-25T09:03:14.021Z,41.02
2019-05-25T09:04:05.926Z,41.66
2019-05-25T09:05:13.041Z,43.08
2019-05-25T09:06:05.904Z,44.42
2019-05-25T09:07:26.883Z,44.74
2019-05-25T09:08:05.885Z,45.37
2019-05-25T09:09:20.995Z,46.37
2019-05-25T09:10:05.866Z,47.09
2019-05-25T09:13:22.047Z,40.72
2019-05-25T09:14:09.988Z,38.04
2019-05-25T09:15:31.040Z,36.57
2019-05-25T09:16:09.949Z,34.90
2019-05-25T09:17:09.963Z,31.90
2019-05-25T09:20:28.408Z,35.18
2019-05-25T09:21:07.403Z,32.61
2019-05-25T09:22:09.575Z,31.38
2019-05-25T09:23:07.383Z,30.47
2019-05-25T09:25:34.545Z,31.36
2019-05-25T09:26:31.336Z,30.37
2019-05-25T09:27:30.166Z,30.45
2019-05-25T09:29:06.028Z,29.67
2019-05-25T09:29:30.138Z,30.93
2019-05-25T09:30:30.129Z,30.65
2019-05-25T09:31:30.119Z,30.69
2019-05-25T09:32:30.159Z,31.62
2019-05-25T09:33:46.011Z,32.21
2019-05-25T09:34:30.071Z,31.22
2019-05-25T09:35:46.972Z,29.36
2019-05-25T09:36:30.073Z,32.71
2019-05-25T09:37:30.043Z,33.23
2019-05-25T09:38:38.994Z,34.77
2019-05-25T09:39:30.025Z,36.84
2019-05-25T09:40:38.015Z,38.20
2019-05-25T09:41:30.057Z,41.97
2019-05-25T09:42:39.425Z,43.02
2019-05-25T09:43:29.988Z,45.45
2019-05-25T09:44:58.981Z,46.80
2019-05-25T09:45:29.953Z,48.14
2019-05-25T09:47:38.791Z,49.01
2019-05-25T09:48:46.552Z,50.32
2019-05-25T09:49:38.752Z,49.43
2019-05-25T09:50:59.900Z,49.57
2019-05-25T09:51:38.734Z,50.77
2019-05-25T09:52:38.744Z,51.27
2019-05-25T09:53:38.714Z,50.47
2019-05-25T09:54:38.715Z,50.27
2019-05-25T09:55:46.535Z,51.40
2019-05-25T09:56:38.686Z,51.12
2019-05-25T09:57:43.037Z,53.24
2019-05-25T09:58:38.659Z,52.87
2019-05-25T10:02:59.855Z,55.24
2019-05-25T10:03:29.791Z,54.94
2019-05-25T10:04:29.781Z,55.24
2019-05-25T10:05:29.943Z,56.24
2019-05-25T10:06:29.753Z,55.57
2019-05-25T10:07:29.924Z,57.30
2019-05-25T10:08:29.734Z,57.43
2019-05-25T10:09:29.734Z,58.03
2019-05-25T10:10:29.731Z,58.13
2019-05-25T10:11:38.447Z,58.06
2019-05-25T10:12:29.720Z,59.86
2019-05-25T10:13:36.437Z,60.03
2019-05-25T10:14:45.449Z,58.73
2019-05-25T10:15:29.658Z,59.26
2019-05-25T10:16:46.360Z,59.77
2019-05-25T10:17:29.650Z,58.56
2019-05-25T10:19:07.383Z,59.77
2019-05-25T10:19:29.611Z,58.89
2019-05-25T10:20:45.412Z,60.19
2019-05-25T10:21:29.609Z,60.89
2019-05-25T10:22:53.886Z,61.00
2019-05-25T10:23:29.575Z,60.29
2019-05-25T10:27:25.737Z,61.52
2019-05-25T10:32:23.980Z,60.82
2019-05-25T10:33:22.781Z,60.72
2019-05-25T10:34:37.594Z,60.69
2019-05-25T10:35:22.769Z,60.49
2019-05-25T10:36:22.753Z,60.36
2019-05-25T10:37:22.764Z,59.16
2019-05-25T10:38:43.907Z,60.44
2019-05-25T10:39:22.728Z,59.64
2019-05-25T10:40:23.980Z,60.94
2019-05-25T10:41:22.707Z,62.14
2019-05-25T10:42:22.817Z,60.84
2019-05-25T10:43:22.693Z,59.00
2019-05-25T10:44:38.598Z,58.73
2019-05-25T10:45:22.648Z,60.21
2019-05-25T10:46:50.561Z,60.01
2019-05-25T10:47:22.629Z,61.01
2019-05-25T10:48:22.630Z,59.53
2019-05-25T10:49:31.811Z,60.14
2019-05-25T10:50:22.592Z,60.69
2019-05-25T10:51:50.562Z,61.22
2019-05-25T10:52:22.573Z,62.96
2019-05-25T10:53:27.097Z,63.96
2019-05-25T10:54:22.564Z,65.07
2019-05-25T10:55:43.676Z,62.89
2019-05-25T10:56:22.537Z,65.10
2019-05-25T10:57:22.627Z,64.10
2019-05-25T10:58:22.540Z,65.17
2019-05-25T10:59:22.567Z,65.57
2019-05-25T11:00:22.489Z,66.24
2019-05-25T11:01:22.487Z,65.64
2019-05-25T11:02:22.461Z,61.33
2019-05-25T11:03:22.461Z,62.53
2019-05-25T11:04:22.451Z,62.53
2019-05-25T11:05:22.472Z,62.46
2019-05-25T11:06:22.413Z,62.36
2019-05-25T11:07:23.433Z,62.26
2019-05-25T11:08:22.534Z,64.07
2019-05-25T11:09:22.425Z,64.57
2019-05-25T11:10:22.436Z,64.07
2019-05-25T11:11:22.376Z,65.04
2019-05-25T11:12:25.881Z,65.24
2019-05-25T11:13:22.468Z,65.14
2019-05-25T11:14:22.328Z,65.54
2019-05-25T11:15:22.358Z,65.71
2019-05-25T11:16:22.311Z,64.98
2019-05-25T11:17:22.400Z,63.98
2019-05-25T11:18:22.300Z,61.54
2019-05-25T11:19:24.325Z,59.50
2019-05-25T11:20:22.264Z,60.14
2019-05-25T11:21:22.375Z,59.50
2019-05-25T11:22:22.253Z,58.81
2019-05-25T11:23:22.357Z,58.68
2019-05-25T11:24:22.226Z,59.05
2019-05-25T11:25:22.247Z,58.52
2019-05-25T11:26:22.207Z,57.79
2019-05-25T11:27:22.275Z,57.09
2019-05-25T11:28:22.176Z,57.79
2019-05-25T11:29:22.197Z,57.09
2019-05-25T11:30:22.178Z,56.02
2019-05-25T11:31:22.138Z,56.99
2019-05-25T11:32:22.219Z,57.79
2019-05-25T11:33:22.120Z,56.99
2019-05-25T11:34:22.144Z,57.69
2019-05-25T11:35:22.122Z,58.52
2019-05-25T11:36:22.095Z,60.12
2019-05-25T11:37:22.163Z,60.95
2019-05-25T11:38:22.073Z,61.88
2019-05-25T11:39:22.083Z,61.28
2019-05-25T11:40:22.048Z,62.58
2019-05-25T11:41:22.139Z,63.78
2019-05-25T11:42:22.025Z,63.39
2019-05-25T11:43:22.066Z,64.39
2019-05-25T11:44:22.017Z,64.51
2019-05-25T11:45:21.988Z,65.78
2019-05-25T11:46:22.068Z,64.51
2019-05-25T11:47:21.958Z,62.88
2019-05-25T11:48:22.015Z,63.95
2019-05-25T11:49:22.979Z,62.12
2019-05-25T11:50:22.070Z,60.72
2019-05-25T11:51:22.014Z,60.19
2019-05-25T11:52:21.923Z,59.39
2019-05-25T11:53:21.955Z,58.17
2019-05-25T11:54:21.933Z,56.09
2019-05-25T11:55:21.890Z,55.40
2019-05-25T11:56:21.868Z,57.29
2019-05-25T11:57:21.935Z,57.89
2019-05-25T11:58:22.010Z,55.47
2019-05-25T11:59:21.896Z,55.66
2019-05-25T12:00:25.318Z,54.57
2019-05-25T12:01:21.898Z,55.19
2019-05-25T12:02:21.791Z,55.52
2019-05-25T12:03:21.829Z,54.62
2019-05-25T12:04:21.790Z,55.22
2019-05-25T12:05:22.799Z,57.05
2019-05-25T12:06:21.841Z,57.12
2019-05-25T12:07:21.737Z,56.15
2019-05-25T12:08:21.776Z,56.15
2019-05-25T12:09:21.743Z,56.62
2019-05-25T12:10:21.814Z,57.42
2019-05-25T12:11:21.704Z,58.12
2019-05-25T12:12:21.748Z,60.32
2019-05-25T12:13:21.666Z,61.69
2019-05-25T12:14:21.727Z,61.85
2019-05-25T12:15:21.651Z,62.35
2019-05-25T12:16:21.638Z,62.88
2019-05-25T12:17:21.631Z,62.58
2019-05-25T12:18:21.659Z,62.11
2019-05-25T12:19:22.416Z,62.71
2019-05-25T12:20:21.711Z,62.84
2019-05-25T12:21:21.582Z,64.37
2019-05-25T12:22:21.632Z,64.68
2019-05-25T12:23:21.573Z,65.81
2019-05-25T12:24:21.613Z,66.64
2019-05-25T12:25:21.550Z,66.85
2019-05-25T12:26:21.605Z,67.88
2019-05-25T12:27:21.535Z,67.75
2019-05-25T12:28:21.556Z,67.48
2019-05-25T12:29:21.506Z,68.02
2019-05-25T12:30:21.579Z,68.82
2019-05-25T12:31:21.467Z,68.02
2019-05-25T12:32:21.458Z,68.52
2019-05-25T12:33:21.479Z,69.02
2019-05-25T12:34:21.530Z,68.72
2019-05-25T12:35:21.531Z,68.82
2019-05-25T12:36:21.410Z,69.06
2019-05-25T12:37:21.401Z,69.12
2019-05-25T12:38:22.442Z,69.42
2019-05-25T12:39:21.709Z,68.32
2019-05-25T12:40:21.463Z,68.92
2019-05-25T12:41:21.370Z,68.52
2019-05-25T12:42:21.356Z,67.78
2019-05-25T12:43:21.346Z,66.61
2019-05-25T12:44:21.378Z,66.88
2019-05-25T12:45:21.316Z,67.98
2019-05-25T12:46:21.367Z,68.02
2019-05-25T12:47:21.293Z,68.21
2019-05-25T12:48:21.297Z,68.12
2019-05-25T12:49:21.293Z,67.71
2019-05-25T12:50:21.339Z,68.02
2019-05-25T12:51:21.251Z,67.82
2019-05-25T12:52:21.281Z,67.68
2019-05-25T12:53:21.225Z,67.65
2019-05-25T12:54:22.281Z,67.05
2019-05-25T12:55:21.213Z,66.71
2019-05-25T12:56:21.254Z,66.68
2019-05-25T12:57:23.994Z,65.15
2019-05-25T12:58:23.757Z,64.48
2019-05-25T12:59:21.255Z,64.45
2019-05-25T13:00:21.156Z,63.06
2019-05-25T13:01:21.186Z,63.56
2019-05-25T13:02:21.147Z,63.75
2019-05-25T13:03:21.104Z,64.39
2019-05-25T13:04:21.098Z,64.22
2019-05-25T13:05:33.699Z,64.84
2019-05-25T13:06:22.079Z,64.62
2019-05-25T13:07:21.100Z,65.15
2019-05-25T13:08:21.062Z,65.05
2019-05-25T13:09:21.132Z,65.05
2019-05-25T13:10:21.064Z,65.28
2019-05-25T13:11:21.074Z,65.08
2019-05-25T13:12:21.024Z,66.28
2019-05-25T13:13:21.112Z,65.25
2019-05-25T13:14:20.984Z,65.35
2019-05-25T13:15:21.086Z,65.05
2019-05-25T13:16:20.966Z,64.54
2019-05-25T13:17:20.976Z,64.88